Time;durP1;ratioP1;P1;durP2;ratioP2;P2;SDS_P1;SDS_P2;PMS_P1;PMS_P2;Temp;Humidity;BMP_temperature;BMP_pressure;BME280_temperature;BME280_humidity;BME280_pressure;Samples;Min_cycle;Max_cycle;Signal;HPM_P1;HPM_P2
2022/11/15 00:02:24;;;;;;;21.73;13.48;;;8.80;99.90;;;;;;5077952;28;20190;-66
2022/11/15 00:05:10;;;;;;;18.10;13.65;;;8.70;99.90;;;;;;5078127;28;20733;-65
2022/11/15 00:07:57;;;;;;;18.40;15.40;;;8.80;99.90;;;;;;5078569;28;20267;-65
2022/11/15 00:10:54;;;;;;;17.85;13.70;;;8.80;99.90;;;;;;5077897;28;20244;-66
2022/11/15 00:13:42;;;;;;;20.20;15.40;;;8.80;99.90;;;;;;5078418;28;20207;-65
2022/11/15 00:16:28;;;;;;;17.80;13.88;;;8.90;99.90;;;;;;5081898;28;20187;-65
2022/11/15 00:19:15;;;;;;;17.33;12.70;;;8.90;99.90;;;;;;5082223;28;20311;-65
2022/11/15 00:22:01;;;;;;;17.30;13.90;;;9.00;99.90;;;;;;5075388;28;20215;-65
2022/11/15 00:24:48;;;;;;;17.80;13.57;;;9.00;99.90;;;;;;5061815;28;20188;-65
2022/11/15 00:27:34;;;;;;;16.15;12.52;;;9.10;99.90;;;;;;5061407;28;20196;-65
2022/11/15 00:30:22;;;;;;;15.52;12.32;;;9.10;99.90;;;;;;5061567;28;20205;-66
2022/11/15 00:33:10;;;;;;;16.08;12.25;;;9.10;99.90;;;;;;5060922;28;20601;-65
2022/11/15 00:36:01;;;;;;;17.55;11.95;;;9.20;99.90;;;;;;5060962;28;20307;-65
2022/11/15 00:38:47;;;;;;;13.82;11.98;;;9.20;99.90;;;;;;5065058;28;20192;-65
2022/11/15 00:41:34;;;;;;;14.50;11.90;;;9.10;99.90;;;;;;5081121;28;20196;-65
2022/11/15 00:44:20;;;;;;;16.33;13.65;;;9.10;99.90;;;;;;5081290;28;20722;-64
2022/11/15 00:47:07;;;;;;;15.35;11.52;;;9.00;99.90;;;;;;5067006;28;20279;-64
2022/11/15 00:49:54;;;;;;;12.48;11.15;;;9.00;99.90;;;;;;5063263;28;20272;-65
2022/11/15 00:52:40;;;;;;;12.95;11.35;;;9.00;99.90;;;;;;5074496;28;20277;-65
2022/11/15 00:55:26;;;;;;;14.10;11.27;;;8.90;99.90;;;;;;5068554;28;20273;-65
2022/11/15 00:58:12;;;;;;;11.30;10.10;;;8.90;99.90;;;;;;5080460;28;20709;-65
2022/11/15 01:01:07;;;;;;;18.00;12.07;;;8.90;99.90;;;;;;5079029;28;20188;-65
2022/11/15 01:03:54;;;;;;;14.48;10.85;;;8.90;99.90;;;;;;5059306;28;20196;-66
2022/11/15 01:06:41;;;;;;;12.32;10.60;;;8.90;99.90;;;;;;5060027;28;20189;-66
2022/11/15 01:09:27;;;;;;;14.35;12.48;;;9.00;99.90;;;;;;5060210;28;20279;-66
2022/11/15 01:12:14;;;;;;;13.95;10.77;;;9.00;99.90;;;;;;5061284;28;20225;-63
2022/11/15 01:15:00;;;;;;;17.38;10.75;;;9.00;99.90;;;;;;5061167;28;20266;-63
2022/11/15 01:17:46;;;;;;;13.35;11.25;;;9.00;99.90;;;;;;5059532;28;20193;-66
2022/11/15 01:20:35;;;;;;;13.60;12.00;;;9.00;99.90;;;;;;5061076;28;20189;-66
2022/11/15 01:23:21;;;;;;;13.15;10.85;;;8.90;99.90;;;;;;5060880;28;20275;-66
2022/11/15 01:26:10;;;;;;;13.35;11.95;;;8.90;99.90;;;;;;5060885;28;20684;-66
2022/11/15 01:28:57;;;;;;;12.93;11.73;;;8.80;99.90;;;;;;5061169;28;20236;-64
2022/11/15 01:31:43;;;;;;;14.15;11.60;;;8.80;99.90;;;;;;5062167;28;20189;-63
2022/11/15 01:34:29;;;;;;;13.57;12.02;;;8.90;99.90;;;;;;5060861;28;20212;-65
2022/11/15 01:37:17;;;;;;;15.00;12.20;;;8.90;99.90;;;;;;5061721;28;20276;-64
2022/11/15 01:40:05;;;;;;;12.27;11.10;;;9.00;99.90;;;;;;5061797;28;20189;-64
2022/11/15 01:42:51;;;;;;;14.88;11.57;;;9.00;99.90;;;;;;5062176;28;20201;-64
2022/11/15 01:45:37;;;;;;;14.63;11.57;;;9.10;99.90;;;;;;5061284;28;20276;-64
2022/11/15 01:48:30;;;;;;;16.75;12.60;;;9.00;99.90;;;;;;5062154;28;20185;-64
2022/11/15 01:51:19;;;;;;;17.42;12.18;;;9.20;99.90;;;;;;5060829;28;20583;-64
2022/11/15 01:54:13;;;;;;;13.52;11.63;;;9.10;99.90;;;;;;5060321;28;20188;-64
2022/11/15 01:57:02;;;;;;;13.40;11.00;;;9.10;99.90;;;;;;5061217;28;20219;-65
2022/11/15 01:59:49;;;;;;;13.50;10.77;;;9.20;99.90;;;;;;5061634;28;20240;-64
2022/11/15 02:02:37;;;;;;;12.90;10.00;;;9.20;99.90;;;;;;5061772;28;20542;-64
2022/11/15 02:05:23;;;;;;;12.98;11.57;;;9.20;99.90;;;;;;5060062;28;20177;-64
2022/11/15 02:08:19;;;;;;;21.02;10.63;;;9.20;99.90;;;;;;5061537;28;20192;-65
2022/11/15 02:11:09;;;;;;;16.63;10.70;;;9.20;99.90;;;;;;5061095;28;20224;-64
2022/11/15 02:13:56;;;;;;;13.43;11.90;;;9.20;99.90;;;;;;5060543;28;20196;-64
2022/11/15 02:16:50;;;;;;;17.88;10.90;;;9.20;99.90;;;;;;5061462;28;20755;-64
2022/11/15 02:20:09;;;;;;;12.25;10.70;;;9.20;99.90;;;;;;5061180;28;20713;-64
2022/11/15 02:23:15;;;;;;;17.15;11.13;;;9.20;99.90;;;;;;5062245;28;20337;-64
2022/11/15 02:26:31;;;;;;;14.00;10.40;;;9.20;99.90;;;;;;5060976;28;20256;-64
2022/11/15 02:29:26;;;;;;;10.88;9.73;;;9.20;99.90;;;;;;5058964;28;20232;-64
2022/11/15 02:32:19;;;;;;;12.18;10.23;;;9.20;99.90;;;;;;5069752;28;20207;-65
2022/11/15 02:35:17;;;;;;;12.57;11.27;;;9.20;99.90;;;;;;5079153;28;20544;-64
2022/11/15 02:38:09;;;;;;;13.60;9.90;;;9.20;99.90;;;;;;5073771;28;20196;-65
2022/11/15 02:41:01;;;;;;;14.73;11.15;;;9.10;99.90;;;;;;5076638;28;20189;-65
2022/11/15 02:43:57;;;;;;;11.77;10.18;;;9.10;99.90;;;;;;5060859;28;20215;-64
2022/11/15 02:49:59;;;;;;;11.55;10.35;;;9.10;99.90;;;;;;5061248;28;20211;-64
2022/11/15 02:52:47;;;;;;;15.02;11.32;;;9.10;99.90;;;;;;5062337;28;20632;-64
2022/11/15 02:55:35;;;;;;;12.32;11.00;;;9.20;99.90;;;;;;5081712;28;20212;-65
2022/11/15 02:58:50;;;;;;;18.02;11.65;;;9.20;99.90;;;;;;5081163;28;20211;-64
2022/11/15 03:01:50;;;;;;;15.43;11.77;;;9.20;99.90;;;;;;5079741;28;20203;-65
2022/11/15 03:04:44;;;;;;;14.05;10.90;;;9.20;99.90;;;;;;5080213;28;20258;-64
2022/11/15 03:07:39;;;;;;;19.60;10.45;;;9.20;99.90;;;;;;5072719;28;20267;-65
2022/11/15 03:10:31;;;;;;;12.77;10.35;;;9.30;99.90;;;;;;5066643;28;20188;-65
2022/11/15 03:13:25;;;;;;;14.98;10.93;;;9.30;99.90;;;;;;5063909;28;20316;-64
2022/11/15 03:16:17;;;;;;;11.30;10.15;;;9.40;99.90;;;;;;5068305;28;20216;-64
2022/11/15 03:19:11;;;;;;;13.35;10.35;;;9.40;99.90;;;;;;5060425;28;20588;-64
2022/11/15 03:22:00;;;;;;;15.15;10.65;;;9.50;99.90;;;;;;5070387;28;20196;-64
2022/11/15 03:24:54;;;;;;;11.02;8.20;;;9.60;99.90;;;;;;5065574;28;20593;-64
2022/11/15 03:27:47;;;;;;;10.73;9.57;;;9.60;99.90;;;;;;5074962;28;20252;-65
2022/11/15 03:30:35;;;;;;;10.73;8.60;;;9.70;99.90;;;;;;5070019;28;20305;-64
2022/11/15 03:33:22;;;;;;;12.80;8.75;;;9.70;99.90;;;;;;5060412;28;20193;-64
2022/11/15 03:36:09;;;;;;;9.68;8.68;;;9.80;99.90;;;;;;5065602;28;20234;-64
2022/11/15 03:39:02;;;;;;;14.38;9.02;;;9.80;99.90;;;;;;5077344;28;20193;-65
2022/11/15 03:41:57;;;;;;;9.82;8.13;;;9.80;99.90;;;;;;5072136;28;20195;-64
2022/11/15 03:44:52;;;;;;;13.00;9.15;;;9.80;99.90;;;;;;5078537;28;20192;-65
2022/11/15 03:47:43;;;;;;;10.77;8.82;;;9.80;99.90;;;;;;5076210;28;20211;-64
2022/11/15 03:50:30;;;;;;;17.55;14.20;;;9.70;99.90;;;;;;5070457;28;20279;-64
2022/11/15 03:53:17;;;;;;;27.05;19.92;;;9.80;99.90;;;;;;5074946;28;20202;-65
2022/11/15 03:56:03;;;;;;;24.80;14.70;;;9.70;99.90;;;;;;5072910;28;20208;-65
2022/11/15 03:58:51;;;;;;;39.38;30.50;;;9.70;99.90;;;;;;5059757;28;20189;-65
2022/11/15 04:01:38;;;;;;;48.65;34.90;;;9.70;99.90;;;;;;5075366;28;20196;-64
2022/11/15 04:04:24;;;;;;;61.03;38.40;;;9.70;99.90;;;;;;5065050;28;20223;-65
2022/11/15 04:07:11;;;;;;;49.42;31.20;;;9.70;99.90;;;;;;5078866;28;20669;-65
2022/11/15 04:10:03;;;;;;;46.22;27.45;;;9.70;99.90;;;;;;5078502;28;20651;-64
2022/11/15 04:12:50;;;;;;;43.50;26.70;;;9.70;99.90;;;;;;5075206;28;20540;-65
2022/11/15 04:15:37;;;;;;;34.28;23.27;;;9.70;99.90;;;;;;5066568;28;20186;-65
2022/11/15 04:18:24;;;;;;;33.58;20.73;;;9.70;99.90;;;;;;5079135;28;20595;-65
2022/11/15 04:24:15;;;;;;;22.10;15.60;;;9.70;99.90;;;;;;5059587;28;20558;-65
2022/11/15 04:27:01;;;;;;;26.77;18.60;;;9.70;99.90;;;;;;5059364;28;20180;-65
2022/11/15 04:29:48;;;;;;;17.80;14.38;;;9.70;99.90;;;;;;5058535;28;20227;-65
2022/11/15 04:32:35;;;;;;;23.02;17.30;;;9.70;99.90;;;;;;5060044;28;20191;-64
2022/11/15 04:35:22;;;;;;;19.55;14.65;;;9.70;99.90;;;;;;5058162;28;20196;-65
2022/11/15 04:38:10;;;;;;;16.50;13.45;;;9.70;99.90;;;;;;5059840;28;20273;-64
2022/11/15 04:40:56;;;;;;;19.95;14.18;;;9.80;99.90;;;;;;5058826;28;20609;-65
2022/11/15 04:43:42;;;;;;;17.90;13.90;;;9.80;99.90;;;;;;5060067;28;20189;-64
2022/11/15 04:46:29;;;;;;;19.33;12.77;;;9.70;99.90;;;;;;5059122;28;20249;-65
2022/11/15 04:49:20;;;;;;;17.33;13.80;;;9.70;99.90;;;;;;5060165;28;20184;-65
2022/11/15 04:52:06;;;;;;;18.52;13.05;;;9.70;99.90;;;;;;5059264;28;20177;-65
2022/11/15 04:54:52;;;;;;;16.73;11.00;;;9.70;99.90;;;;;;5058937;28;20194;-65
2022/11/15 04:57:39;;;;;;;14.63;9.82;;;9.70;99.90;;;;;;5058916;28;20220;-65
2022/11/15 05:00:26;;;;;;;13.30;11.27;;;9.60;99.90;;;;;;5062320;28;20188;-64
2022/11/15 05:06:29;;;;;;;13.63;9.77;;;9.60;99.90;;;;;;5039590;28;20205;-64
2022/11/15 05:09:16;;;;;;;13.10;9.98;;;9.60;99.90;;;;;;5063425;28;20201;-65
2022/11/15 05:12:02;;;;;;;15.57;9.10;;;9.60;99.90;;;;;;5079613;28;20231;-65
2022/11/15 05:14:49;;;;;;;11.30;9.65;;;9.50;99.90;;;;;;5083154;28;20225;-65
2022/11/15 05:17:35;;;;;;;11.40;10.05;;;9.50;99.90;;;;;;5079755;28;20753;-65
2022/11/15 05:20:22;;;;;;;12.68;9.88;;;9.50;99.90;;;;;;5063126;28;20208;-65
2022/11/15 05:23:09;;;;;;;13.40;10.32;;;9.50;99.90;;;;;;5075192;28;20195;-64
2022/11/15 05:26:00;;;;;;;13.05;9.60;;;9.50;99.90;;;;;;5061017;28;20197;-64
2022/11/15 05:28:46;;;;;;;14.07;9.13;;;9.40;99.90;;;;;;5061713;28;20780;-64
2022/11/15 05:31:32;;;;;;;9.77;8.77;;;9.40;99.90;;;;;;5062818;28;20705;-64
2022/11/15 05:34:21;;;;;;;17.88;10.45;;;9.40;99.90;;;;;;5060631;28;20264;-64
2022/11/15 05:37:08;;;;;;;11.65;10.45;;;9.40;99.90;;;;;;5061162;28;20218;-64
2022/11/15 05:39:56;;;;;;;13.10;9.38;;;9.30;99.90;;;;;;5059954;28;20703;-64
2022/11/15 05:42:42;;;;;;;12.38;9.65;;;9.30;99.90;;;;;;5074188;28;20191;-66
2022/11/15 05:45:29;;;;;;;12.90;10.65;;;9.30;99.90;;;;;;5080599;28;20196;-65
2022/11/15 05:48:16;;;;;;;14.60;10.35;;;9.30;99.90;;;;;;5080049;28;20210;-64
2022/11/15 05:51:05;;;;;;;13.90;8.88;;;9.30;99.90;;;;;;5079743;28;20195;-65
2022/11/15 05:53:53;;;;;;;13.13;10.63;;;9.20;99.90;;;;;;5080031;28;20499;-64
2022/11/15 05:56:41;;;;;;;18.02;10.38;;;9.20;99.90;;;;;;5075764;28;20296;-64
2022/11/15 05:59:30;;;;;;;11.35;9.68;;;9.20;99.90;;;;;;5079516;28;20215;-64
2022/11/15 06:02:16;;;;;;;16.77;11.15;;;9.10;99.90;;;;;;5060166;28;20565;-64
2022/11/15 06:05:03;;;;;;;21.60;14.00;;;9.10;99.90;;;;;;5066839;28;20313;-64
2022/11/15 06:07:49;;;;;;;13.50;12.10;;;9.10;99.90;;;;;;5077531;28;20180;-64
2022/11/15 06:10:36;;;;;;;13.45;11.82;;;9.00;99.90;;;;;;5067262;28;20640;-64
2022/11/15 06:13:23;;;;;;;15.90;12.27;;;9.00;99.90;;;;;;5061698;28;20248;-64
2022/11/15 06:16:09;;;;;;;16.17;13.80;;;9.00;99.90;;;;;;5068717;28;20669;-64
2022/11/15 06:18:56;;;;;;;16.55;12.52;;;9.00;99.90;;;;;;5071641;28;20187;-64
2022/11/15 06:21:43;;;;;;;17.02;14.38;;;9.00;99.90;;;;;;5076157;28;20195;-64
2022/11/15 06:24:29;;;;;;;15.50;13.45;;;9.00;99.90;;;;;;5064574;28;20192;-64
2022/11/15 06:27:16;;;;;;;15.35;12.48;;;9.00;99.90;;;;;;5065444;28;20643;-64
2022/11/15 06:30:04;;;;;;;16.20;13.57;;;9.00;99.90;;;;;;5064241;28;20197;-64
2022/11/15 06:32:51;;;;;;;18.85;14.32;;;9.00;99.90;;;;;;5060277;28;20200;-64
2022/11/15 06:35:37;;;;;;;18.25;15.63;;;9.00;99.90;;;;;;5059251;28;20338;-64
2022/11/15 06:38:24;;;;;;;16.92;14.48;;;9.00;99.90;;;;;;5071737;28;20756;-64
2022/11/15 06:41:11;;;;;;;19.83;13.73;;;9.00;99.90;;;;;;5065954;28;20192;-64
2022/11/15 06:43:58;;;;;;;15.98;14.07;;;9.00;99.90;;;;;;5071796;28;20208;-64
2022/11/15 06:46:46;;;;;;;17.63;13.98;;;9.00;99.90;;;;;;5061231;28;20205;-64
2022/11/15 06:49:32;;;;;;;15.25;13.25;;;8.90;99.90;;;;;;5057401;28;20200;-65
2022/11/15 06:52:19;;;;;;;18.38;16.02;;;8.90;99.90;;;;;;5067314;28;20527;-65
2022/11/15 06:55:06;;;;;;;18.27;14.73;;;8.80;99.90;;;;;;5061012;28;20203;-65
2022/11/15 06:57:54;;;;;;;24.65;17.15;;;8.90;99.90;;;;;;5077993;28;20212;-65
2022/11/15 07:00:40;;;;;;;24.13;16.90;;;8.90;99.90;;;;;;5078179;28;20623;-65
2022/11/15 07:03:28;;;;;;;23.38;18.27;;;8.90;99.90;;;;;;5071639;28;20612;-65
2022/11/15 07:06:15;;;;;;;14.15;12.55;;;9.00;99.90;;;;;;5060671;28;20196;-64
2022/11/15 07:09:03;;;;;;;22.80;14.45;;;9.00;99.90;;;;;;5065051;28;20204;-65
2022/11/15 07:11:49;;;;;;;16.55;14.80;;;9.00;99.90;;;;;;5065780;28;20228;-65
2022/11/15 07:14:36;;;;;;;14.85;12.15;;;9.10;99.90;;;;;;5065768;28;20192;-64
2022/11/15 07:17:22;;;;;;;16.33;13.32;;;9.10;99.90;;;;;;5062617;28;20697;-64
2022/11/15 07:20:10;;;;;;;13.80;12.05;;;9.10;99.90;;;;;;5058812;28;20341;-64
2022/11/15 07:23:01;;;;;;;14.43;12.43;;;9.10;99.90;;;;;;5058068;28;20314;-65
2022/11/15 07:25:48;;;;;;;15.73;11.18;;;9.10;99.90;;;;;;5059881;28;20192;-64
2022/11/15 07:28:34;;;;;;;17.75;12.48;;;9.20;99.90;;;;;;5058570;28;20239;-64
2022/11/15 07:31:22;;;;;;;22.70;12.20;;;9.20;99.90;;;;;;5058119;28;20185;-64
2022/11/15 07:34:09;;;;;;;13.57;10.75;;;9.20;99.90;;;;;;5059041;28;20188;-64
2022/11/15 07:36:57;;;;;;;15.55;10.60;;;9.30;99.90;;;;;;5059252;28;20758;-65
2022/11/15 07:39:44;;;;;;;14.35;12.80;;;9.30;99.90;;;;;;5059349;28;20247;-64
2022/11/15 07:45:42;;;;;;;20.55;14.30;;;9.30;99.90;;;;;;5059265;28;20670;-64
2022/11/15 07:48:29;;;;;;;23.17;16.85;;;9.30;99.90;;;;;;5058303;28;20585;-64
2022/11/15 07:51:16;;;;;;;23.13;16.08;;;9.30;99.90;;;;;;5057701;28;20200;-66
2022/11/15 07:54:04;;;;;;;22.45;16.92;;;9.30;99.90;;;;;;5058357;28;20628;-65
2022/11/15 07:56:50;;;;;;;19.92;17.40;;;9.40;99.90;;;;;;5059057;28;20666;-65
2022/11/15 07:59:36;;;;;;;19.23;16.23;;;9.40;99.90;;;;;;5057831;28;20271;-65
2022/11/15 08:02:22;;;;;;;19.17;16.90;;;9.40;99.90;;;;;;5058501;28;20184;-65
2022/11/15 08:05:09;;;;;;;20.83;15.35;;;9.50;99.90;;;;;;5057499;28;20663;-65
2022/11/15 08:07:56;;;;;;;33.88;21.85;;;9.50;99.90;;;;;;5058273;28;20218;-66
2022/11/15 08:10:44;;;;;;;19.23;16.13;;;9.40;99.90;;;;;;5059792;28;20185;-65
2022/11/15 08:13:30;;;;;;;19.95;17.33;;;9.30;99.90;;;;;;5058790;28;20192;-65
2022/11/15 08:16:16;;;;;;;19.67;17.23;;;9.40;99.90;;;;;;5058931;28;20185;-65
2022/11/15 08:19:03;;;;;;;17.10;14.82;;;9.40;99.90;;;;;;5058024;28;20208;-65
2022/11/15 08:21:49;;;;;;;19.95;16.75;;;9.50;99.90;;;;;;5058778;28;20185;-65
2022/11/15 08:24:35;;;;;;;17.55;15.10;;;9.60;99.90;;;;;;5058787;28;20223;-65
2022/11/15 08:27:23;;;;;;;15.90;13.10;;;9.70;99.90;;;;;;5067196;28;20213;-65
2022/11/15 08:30:10;;;;;;;17.77;15.88;;;9.70;99.90;;;;;;5059686;28;21033;-65
2022/11/15 08:32:59;;;;;;;15.82;14.07;;;9.80;99.90;;;;;;5070409;28;20674;-67
2022/11/15 08:35:45;;;;;;;18.58;13.48;;;9.90;99.90;;;;;;5078591;28;20246;-66
2022/11/15 08:38:32;;;;;;;14.30;12.60;;;9.90;99.90;;;;;;5091919;28;20268;-66
2022/11/15 08:41:26;;;;;;;14.43;12.25;;;10.00;99.90;;;;;;5080934;28;20187;-67
2022/11/15 08:44:14;;;;;;;12.10;10.90;;;10.00;99.90;;;;;;5095153;28;20191;-67
2022/11/15 08:47:00;;;;;;;13.68;12.30;;;10.10;99.90;;;;;;5091898;28;20211;-66
2022/11/15 08:49:47;;;;;;;13.00;11.70;;;10.10;99.90;;;;;;5061767;28;20251;-67
2022/11/15 08:52:33;;;;;;;14.32;11.35;;;10.10;99.90;;;;;;5071782;28;20197;-66
2022/11/15 08:55:20;;;;;;;18.65;11.70;;;10.20;99.90;;;;;;5067823;28;20195;-66
2022/11/15 08:58:06;;;;;;;13.25;11.35;;;10.30;99.90;;;;;;5079146;28;20345;-66
2022/11/15 09:00:54;;;;;;;15.45;10.60;;;10.30;99.90;;;;;;5060523;28;20208;-66
2022/11/15 09:03:41;;;;;;;16.30;11.32;;;10.30;99.90;;;;;;5062898;28;20207;-65
2022/11/15 09:06:27;;;;;;;12.70;9.48;;;10.40;99.90;;;;;;5069292;28;20275;-65
2022/11/15 09:09:13;;;;;;;15.20;11.15;;;10.40;99.90;;;;;;5064555;28;20627;-66
2022/11/15 09:12:00;;;;;;;12.75;11.00;;;10.50;99.90;;;;;;5075542;28;20215;-66
2022/11/15 09:14:46;;;;;;;16.45;10.93;;;10.60;99.90;;;;;;5064529;28;20200;-67
2022/11/15 09:17:34;;;;;;;12.55;11.20;;;10.70;99.90;;;;;;5066496;28;20196;-66
2022/11/15 09:20:20;;;;;;;17.95;11.93;;;10.70;99.90;;;;;;5064040;28;20211;-65
2022/11/15 09:23:07;;;;;;;10.60;8.65;;;10.80;99.90;;;;;;5070739;28;20699;-66
2022/11/15 09:25:58;;;;;;;14.60;9.68;;;10.80;99.90;;;;;;5062079;28;20197;-66
2022/11/15 09:28:45;;;;;;;12.80;10.52;;;10.90;99.90;;;;;;5069322;28;20589;-66
2022/11/15 09:31:31;;;;;;;17.30;9.15;;;11.00;99.90;;;;;;5070101;28;20261;-65
2022/11/15 09:34:19;;;;;;;17.38;11.10;;;11.10;99.90;;;;;;5068347;28;20200;-64
2022/11/15 09:37:06;;;;;;;16.33;9.63;;;11.20;99.90;;;;;;5067599;28;20639;-65
2022/11/15 09:39:53;;;;;;;14.13;9.73;;;11.30;99.90;;;;;;5064570;28;20208;-65
2022/11/15 09:42:52;;;;;;;10.77;8.90;;;11.50;99.90;;;;;;5073484;28;20260;-66
2022/11/15 09:45:49;;;;;;;16.03;9.53;;;11.60;99.90;;;;;;5069221;28;20630;-65
2022/11/15 09:48:56;;;;;;;12.65;9.32;;;11.50;99.90;;;;;;5070072;28;20592;-65
2022/11/15 09:51:47;;;;;;;12.23;8.23;;;11.60;99.90;;;;;;5072128;28;20642;-65
2022/11/15 09:54:26;;;;;;;10.82;9.63;;;11.60;99.90;;;;;;5075702;28;20586;-65
2022/11/15 09:56:56;;;;;;;13.73;9.40;;;11.60;99.90;;;;;;5062459;28;20204;-65
2022/11/15 09:59:47;;;;;;;12.15;8.70;;;11.50;99.90;;;;;;5076460;28;20641;-66
2022/11/15 10:02:29;;;;;;;9.70;8.60;;;11.60;99.90;;;;;;5074237;28;20679;-66
2022/11/15 10:04:59;;;;;;;10.20;8.73;;;11.60;99.90;;;;;;5066713;28;20600;-66
2022/11/15 10:07:34;;;;;;;8.38;7.60;;;11.70;99.90;;;;;;5066587;28;20649;-65
2022/11/15 10:10:10;;;;;;;7.20;6.47;;;11.70;99.90;;;;;;5078182;28;20195;-66
2022/11/15 10:12:48;;;;;;;13.83;6.83;;;11.70;99.90;;;;;;5067061;28;20223;-66
2022/11/15 10:15:22;;;;;;;7.97;6.83;;;11.70;99.90;;;;;;5071951;28;20605;-65
2022/11/15 10:18:18;;;;;;;8.73;7.28;;;11.70;99.90;;;;;;5072057;28;20610;-66
2022/11/15 10:20:51;;;;;;;7.57;6.88;;;11.70;99.90;;;;;;5075532;28;20200;-66
2022/11/15 10:23:22;;;;;;;13.02;7.43;;;11.70;99.90;;;;;;5062528;28;20200;-66
2022/11/15 10:25:53;;;;;;;7.70;6.97;;;11.70;99.90;;;;;;5063378;28;20584;-66
2022/11/15 10:28:26;;;;;;;11.67;7.00;;;11.70;99.90;;;;;;5068512;28;20300;-65
2022/11/15 10:30:56;;;;;;;8.13;7.33;;;11.80;99.90;;;;;;5062731;28;20597;-66
2022/11/15 10:33:35;;;;;;;10.60;7.17;;;11.70;99.90;;;;;;5078018;28;20995;-66
2022/11/15 10:36:25;;;;;;;7.63;6.93;;;11.70;99.90;;;;;;5070372;28;20993;-66
2022/11/15 10:38:58;;;;;;;7.87;7.13;;;11.80;99.90;;;;;;5062945;28;20643;-67
2022/11/15 10:41:39;;;;;;;6.97;6.20;;;11.90;99.90;;;;;;5058135;28;20610;-66
2022/11/15 10:44:26;;;;;;;7.90;7.10;;;11.90;99.90;;;;;;5062094;28;20704;-66
2022/11/15 10:47:35;;;;;;;9.13;6.47;;;12.00;99.90;;;;;;5062876;28;20606;-66
2022/11/15 10:50:07;;;;;;;9.80;7.20;;;12.10;99.90;;;;;;5075966;28;20695;-66
2022/11/15 10:52:36;;;;;;;8.10;6.70;;;12.20;99.90;;;;;;5066871;28;20645;-66
2022/11/15 10:55:23;;;;;;;14.57;6.60;;;12.30;99.90;;;;;;5058486;28;20597;-66
2022/11/15 10:57:53;;;;;;;8.57;6.27;;;12.40;99.90;;;;;;5071180;28;20625;-66
2022/11/15 11:00:38;;;;;;;10.27;7.17;;;12.60;99.90;;;;;;5079949;28;21215;-66
2022/11/15 11:03:21;;;;;;;9.50;7.00;;;12.80;99.90;;;;;;5074950;28;20968;-65
2022/11/15 11:05:49;;;;;;;10.73;7.37;;;12.80;99.90;;;;;;5059810;28;20674;-66
2022/11/15 11:08:24;;;;;;;6.20;5.70;;;12.90;99.90;;;;;;5080445;28;20660;-66
2022/11/15 11:10:58;;;;;;;6.40;5.73;;;12.90;99.90;;;;;;5061221;28;20712;-66
2022/11/15 11:13:27;;;;;;;6.30;5.70;;;12.90;99.90;;;;;;5064118;28;20685;-66
2022/11/15 11:16:19;;;;;;;5.70;5.20;;;12.90;99.90;;;;;;5064614;28;21227;-66
2022/11/15 11:18:56;;;;;;;7.43;4.60;;;12.90;99.90;;;;;;5071848;28;20638;-66
2022/11/15 11:21:32;;;;;;;4.40;4.10;;;12.90;99.90;;;;;;5060521;28;20974;-66
2022/11/15 11:24:07;;;;;;;5.40;4.70;;;12.90;99.90;;;;;;5068996;28;20578;-66
2022/11/15 11:26:46;;;;;;;7.30;5.23;;;13.00;99.90;;;;;;5071748;28;20607;-65
2022/11/15 11:29:27;;;;;;;9.67;6.50;;;13.20;99.90;;;;;;5078501;28;20740;-66
2022/11/15 11:32:02;;;;;;;6.80;4.97;;;13.40;99.90;;;;;;5078974;28;20625;-66
2022/11/15 11:34:41;;;;;;;4.70;4.13;;;13.40;99.90;;;;;;5073599;28;20701;-65
2022/11/15 11:37:17;;;;;;;5.00;4.50;;;13.30;99.90;;;;;;5069348;28;20618;-66
2022/11/15 11:39:55;;;;;;;10.97;5.40;;;13.40;99.90;;;;;;5067244;28;20649;-65
2022/11/15 11:42:34;;;;;;;5.77;5.10;;;13.40;99.90;;;;;;5064842;28;20631;-65
2022/11/15 11:45:15;;;;;;;6.00;4.27;;;13.40;99.90;;;;;;5076636;28;20572;-65
2022/11/15 11:47:48;;;;;;;8.03;5.33;;;13.30;99.90;;;;;;5060397;28;20608;-65
2022/11/15 11:50:20;;;;;;;7.23;4.00;;;13.30;99.90;;;;;;5062312;28;20589;-65
2022/11/15 11:52:57;;;;;;;4.90;3.63;;;13.30;99.90;;;;;;5071709;28;20964;-65
2022/11/15 11:55:30;;;;;;;9.30;4.50;;;13.40;99.90;;;;;;5062992;28;20949;-65
2022/11/15 11:58:06;;;;;;;3.90;3.60;;;13.40;99.90;;;;;;5065144;28;20602;-65
2022/11/15 12:00:39;;;;;;;4.50;4.10;;;13.40;99.90;;;;;;5068710;28;20638;-65
2022/11/15 12:03:12;;;;;;;4.13;3.37;;;13.30;99.90;;;;;;5058218;28;20615;-65
2022/11/15 12:05:44;;;;;;;6.43;4.40;;;13.30;99.90;;;;;;5059130;28;20971;-66
2022/11/15 12:08:26;;;;;;;4.90;4.20;;;13.40;99.90;;;;;;5062487;28;20640;-67
2022/11/15 12:11:01;;;;;;;7.27;4.27;;;13.40;99.90;;;;;;5065275;28;20663;-65
2022/11/15 12:13:36;;;;;;;4.20;3.80;;;13.40;99.90;;;;;;5058595;28;20602;-65
2022/11/15 12:16:11;;;;;;;4.23;3.83;;;13.40;99.90;;;;;;5064631;28;20641;-67
2022/11/15 12:18:39;;;;;;;14.73;5.50;;;13.50;99.90;;;;;;5064625;28;20632;-66
2022/11/15 12:21:14;;;;;;;5.30;4.47;;;13.50;99.90;;;;;;5059249;28;20641;-65
2022/11/15 12:23:47;;;;;;;3.77;3.47;;;13.60;99.90;;;;;;5072385;28;20609;-65
2022/11/15 12:26:21;;;;;;;4.50;4.20;;;13.60;99.90;;;;;;5073092;28;21133;-67
2022/11/15 12:28:53;;;;;;;5.60;3.60;;;13.80;99.90;;;;;;5062088;28;20656;-67
2022/11/15 12:31:30;;;;;;;4.83;4.33;;;13.80;99.90;;;;;;5066745;28;20618;-66
2022/11/15 12:33:59;;;;;;;6.20;4.10;;;13.90;99.90;;;;;;5066685;28;20598;-66
2022/11/15 12:36:38;;;;;;;4.00;3.70;;;14.00;99.90;;;;;;5068473;28;21168;-66
2022/11/15 12:39:08;;;;;;;5.30;4.40;;;14.00;99.90;;;;;;5067123;28;20598;-66
2022/11/15 12:41:38;;;;;;;9.10;3.83;;;14.00;99.90;;;;;;5068422;28;21253;-66
2022/11/15 12:44:12;;;;;;;5.07;3.97;;;14.00;99.90;;;;;;5071305;28;20592;-66
2022/11/15 12:47:05;;;;;;;3.43;3.23;;;14.00;99.90;;;;;;5066473;28;20617;-66
2022/11/15 12:49:46;;;;;;;5.77;3.73;;;14.00;99.90;;;;;;5064896;28;20602;-66
2022/11/15 12:52:15;;;;;;;5.70;3.60;;;14.20;99.90;;;;;;5066433;28;20606;-67
2022/11/15 12:55:28;;;;;;;4.60;4.20;;;14.00;99.90;;;;;;5068827;28;20634;-66
2022/11/15 12:57:55;;;;;;;5.37;3.90;;;14.20;99.90;;;;;;5066177;28;21035;-67
2022/11/15 13:00:46;;;;;;;7.23;4.23;;;14.30;99.90;;;;;;5061378;28;21247;-66
2022/11/15 13:03:26;;;;;;;4.13;3.77;;;14.40;99.90;;;;;;5053429;28;20590;-66
2022/11/15 13:06:10;;;;;;;6.97;3.83;;;14.30;99.90;;;;;;5054434;28;20610;-67
2022/11/15 13:08:50;;;;;;;9.27;4.00;;;14.20;99.90;;;;;;5060063;28;20602;-66
2022/11/15 13:11:46;;;;;;;5.77;3.57;;;14.30;99.90;;;;;;5064800;28;21001;-67
2022/11/15 13:14:40;;;;;;;3.50;3.20;;;14.20;99.90;;;;;;5051287;28;20661;-67
2022/11/15 13:17:30;;;;;;;3.60;3.30;;;14.10;99.90;;;;;;5056174;28;20618;-66
2022/11/15 13:20:01;;;;;;;8.53;3.50;;;14.00;99.90;;;;;;5060995;28;20708;-66
2022/11/15 13:22:52;;;;;;;5.47;4.50;;;14.10;99.90;;;;;;5063966;28;20661;-66
2022/11/15 13:25:41;;;;;;;5.60;4.40;;;14.10;99.90;;;;;;5055504;28;20600;-67
2022/11/15 13:28:19;;;;;;;4.97;4.67;;;14.10;99.90;;;;;;5053597;28;20646;-66
2022/11/15 13:30:52;;;;;;;5.47;4.97;;;14.10;99.90;;;;;;5054805;28;21194;-67
2022/11/15 13:33:24;;;;;;;12.53;4.23;;;14.10;99.90;;;;;;5055040;28;20614;-66
2022/11/15 13:35:55;;;;;;;7.73;3.97;;;14.10;99.90;;;;;;5059202;28;20593;-66
2022/11/15 13:38:28;;;;;;;8.40;4.73;;;14.00;99.90;;;;;;5058117;28;20759;-67
2022/11/15 13:40:56;;;;;;;6.07;5.30;;;14.00;99.90;;;;;;5068362;28;20650;-66
2022/11/15 13:43:32;;;;;;;6.73;4.50;;;13.90;99.90;;;;;;5075217;28;20632;-66
2022/11/15 13:46:14;;;;;;;8.27;5.00;;;13.80;99.90;;;;;;5074996;28;20722;-67
2022/11/15 13:48:45;;;;;;;4.97;4.47;;;13.80;99.90;;;;;;5071769;28;20584;-66
2022/11/15 13:51:20;;;;;;;4.70;3.87;;;13.80;99.90;;;;;;5073058;28;20602;-66
2022/11/15 13:53:55;;;;;;;9.07;5.50;;;13.70;99.90;;;;;;5076300;28;20588;-66
2022/11/15 13:56:23;;;;;;;9.67;5.03;;;13.60;99.90;;;;;;5078430;28;20602;-66
2022/11/15 13:58:52;;;;;;;7.03;5.13;;;13.60;99.90;;;;;;5072669;28;20635;-66
2022/11/15 14:01:23;;;;;;;48.00;6.90;;;13.60;99.90;;;;;;5076879;28;20661;-66
2022/11/15 14:03:55;;;;;;;9.10;4.97;;;13.60;99.90;;;;;;5065393;28;20613;-66
2022/11/15 14:06:27;;;;;;;6.60;5.97;;;13.50;99.90;;;;;;5064698;28;20669;-66
2022/11/15 14:09:32;;;;;;;8.13;6.87;;;13.50;99.90;;;;;;5069514;28;20636;-66
2022/11/15 14:12:01;;;;;;;5.73;5.10;;;13.40;99.90;;;;;;5061846;28;20786;-66
2022/11/15 14:14:30;;;;;;;11.00;5.50;;;13.40;99.90;;;;;;5059862;28;20617;-66
2022/11/15 14:17:00;;;;;;;13.77;6.43;;;13.40;99.90;;;;;;5066399;28;20618;-66
2022/11/15 14:19:38;;;;;;;6.10;5.20;;;13.40;99.90;;;;;;5066242;28;20627;-66
2022/11/15 14:22:17;;;;;;;7.67;5.10;;;13.30;99.90;;;;;;5065971;28;20644;-66
2022/11/15 14:24:48;;;;;;;19.17;5.70;;;13.20;99.90;;;;;;5057400;28;20583;-66